sensor_id;sensor_type;location;lat;lon;timestamp;temperature;humidity
8605;DHT22;4340;52.516;13.468;2023-01-19T00:00:44;0.40;12.30
8605;DHT22;4340;52.516;13.468;2023-01-19T00:03:11;0.30;1.00
8605;DHT22;4340;52.516;13.468;2023-01-19T00:05:40;0.20;1.00
8605;DHT22;4340;52.516;13.468;2023-01-19T00:08:07;0.20;13.40
8605;DHT22;4340;52.516;13.468;2023-01-19T00:10:40;0.30;6.80
8605;DHT22;4340;52.516;13.468;2023-01-19T00:13:06;0.30;19.30
8605;DHT22;4340;52.516;13.468;2023-01-19T00:15:34;0.30;25.60
8605;DHT22;4340;52.516;13.468;2023-01-19T00:18:01;0.30;7.20
8605;DHT22;4340;52.516;13.468;2023-01-19T00:20:27;0.30;12.30
8605;DHT22;4340;52.516;13.468;2023-01-19T00:22:56;0.30;21.10
8605;DHT22;4340;52.516;13.468;2023-01-19T00:25:23;0.40;6.70
8605;DHT22;4340;52.516;13.468;2023-01-19T00:27:49;0.30;1.00
8605;DHT22;4340;52.516;13.468;2023-01-19T00:30:16;0.40;1.00
8605;DHT22;4340;52.516;13.468;2023-01-19T00:32:44;0.30;1.00
8605;DHT22;4340;52.516;13.468;2023-01-19T00:35:11;0.30;1.00
8605;DHT22;4340;52.516;13.468;2023-01-19T00:37:37;0.30;1.00
8605;DHT22;4340;52.516;13.468;2023-01-19T00:40:05;0.30;1.00
8605;DHT22;4340;52.516;13.468;2023-01-19T00:42:31;0.30;1.00
8605;DHT22;4340;52.516;13.468;2023-01-19T00:45:10;0.30;1.00
8605;DHT22;4340;52.516;13.468;2023-01-19T00:47:37;0.30;1.00
8605;DHT22;4340;52.516;13.468;2023-01-19T00:50:08;0.20;1.00
8605;DHT22;4340;52.516;13.468;2023-01-19T00:52:36;0.30;1.00
8605;DHT22;4340;52.516;13.468;2023-01-19T00:55:03;0.30;1.00
8605;DHT22;4340;52.516;13.468;2023-01-19T00:57:29;0.20;1.00
8605;DHT22;4340;52.516;13.468;2023-01-19T00:59:56;0.20;1.00
8605;DHT22;4340;52.516;13.468;2023-01-19T01:02:23;0.20;1.00
8605;DHT22;4340;52.516;13.468;2023-01-19T01:04:49;0.20;1.00
8605;DHT22;4340;52.516;13.468;2023-01-19T01:07:20;0.20;1.00
8605;DHT22;4340;52.516;13.468;2023-01-19T01:09:47;0.20;1.00
8605;DHT22;4340;52.516;13.468;2023-01-19T01:12:13;0.20;1.00
8605;DHT22;4340;52.516;13.468;2023-01-19T01:14:40;0.20;1.00
8605;DHT22;4340;52.516;13.468;2023-01-19T01:17:07;0.10;1.00
8605;DHT22;4340;52.516;13.468;2023-01-19T01:19:36;0.10;1.00
8605;DHT22;4340;52.516;13.468;2023-01-19T01:22:02;0.10;1.00
8605;DHT22;4340;52.516;13.468;2023-01-19T01:24:31;0.10;1.00
8605;DHT22;4340;52.516;13.468;2023-01-19T01:26:57;0.10;1.00
8605;DHT22;4340;52.516;13.468;2023-01-19T01:29:24;0.00;1.00
8605;DHT22;4340;52.516;13.468;2023-01-19T01:31:51;0.00;1.00
8605;DHT22;4340;52.516;13.468;2023-01-19T01:34:18;0.00;1.00
8605;DHT22;4340;52.516;13.468;2023-01-19T01:36:44;0.00;1.00
8605;DHT22;4340;52.516;13.468;2023-01-19T01:39:11;0.00;1.00
8605;DHT22;4340;52.516;13.468;2023-01-19T01:41:38;-0.10;1.00
8605;DHT22;4340;52.516;13.468;2023-01-19T01:47:13;-0.10;1.00
8605;DHT22;4340;52.516;13.468;2023-01-19T01:49:41;-0.20;1.00
8605;DHT22;4340;52.516;13.468;2023-01-19T01:52:07;-0.30;34.90
8605;DHT22;4340;52.516;13.468;2023-01-19T01:54:35;-0.30;72.30
8605;DHT22;4340;52.516;13.468;2023-01-19T01:57:05;-0.30;99.90
8605;DHT22;4340;52.516;13.468;2023-01-19T01:59:39;-0.30;99.90
8605;DHT22;4340;52.516;13.468;2023-01-19T02:02:09;-0.20;99.90
8605;DHT22;4340;52.516;13.468;2023-01-19T02:04:56;-0.30;96.20
8605;DHT22;4340;52.516;13.468;2023-01-19T02:07:29;-0.30;99.90
8605;DHT22;4340;52.516;13.468;2023-01-19T02:10:17;-0.30;99.90
8605;DHT22;4340;52.516;13.468;2023-01-19T02:13:03;-0.30;99.90
8605;DHT22;4340;52.516;13.468;2023-01-19T02:15:46;-0.40;99.90
8605;DHT22;4340;52.516;13.468;2023-01-19T02:18:13;-0.40;99.90
8605;DHT22;4340;52.516;13.468;2023-01-19T02:20:42;-0.60;99.90
8605;DHT22;4340;52.516;13.468;2023-01-19T02:23:15;-0.60;99.90
8605;DHT22;4340;52.516;13.468;2023-01-19T02:25:45;-0.50;99.90
8605;DHT22;4340;52.516;13.468;2023-01-19T02:28:13;-0.50;99.90
8605;DHT22;4340;52.516;13.468;2023-01-19T02:30:40;-0.50;99.90
8605;DHT22;4340;52.516;13.468;2023-01-19T02:33:07;-0.60;99.90
8605;DHT22;4340;52.516;13.468;2023-01-19T02:35:36;-0.70;99.90
8605;DHT22;4340;52.516;13.468;2023-01-19T02:38:03;-0.70;99.90
8605;DHT22;4340;52.516;13.468;2023-01-19T02:40:30;-0.70;99.90
8605;DHT22;4340;52.516;13.468;2023-01-19T02:42:58;-0.70;99.90
8605;DHT22;4340;52.516;13.468;2023-01-19T02:45:26;-0.70;99.90
8605;DHT22;4340;52.516;13.468;2023-01-19T02:47:52;-0.60;99.90
8605;DHT22;4340;52.516;13.468;2023-01-19T02:50:40;-0.60;99.90
8605;DHT22;4340;52.516;13.468;2023-01-19T02:53:52;-0.60;99.90
8605;DHT22;4340;52.516;13.468;2023-01-19T02:56:34;-0.60;99.90
8605;DHT22;4340;52.516;13.468;2023-01-19T02:59:13;-0.70;99.90
8605;DHT22;4340;52.516;13.468;2023-01-19T03:01:54;-0.70;99.90
8605;DHT22;4340;52.516;13.468;2023-01-19T03:04:27;-0.60;99.90
8605;DHT22;4340;52.516;13.468;2023-01-19T03:07:01;-0.80;99.90
8605;DHT22;4340;52.516;13.468;2023-01-19T03:09:36;-0.80;99.90
8605;DHT22;4340;52.516;13.468;2023-01-19T03:12:11;-0.80;99.90
8605;DHT22;4340;52.516;13.468;2023-01-19T03:14:44;-0.70;99.90
8605;DHT22;4340;52.516;13.468;2023-01-19T03:17:16;-0.70;99.90
8605;DHT22;4340;52.516;13.468;2023-01-19T03:19:45;-0.70;99.90
8605;DHT22;4340;52.516;13.468;2023-01-19T03:22:18;-0.70;99.90
8605;DHT22;4340;52.516;13.468;2023-01-19T03:24:47;-0.70;99.90
8605;DHT22;4340;52.516;13.468;2023-01-19T03:27:16;-0.80;99.90
8605;DHT22;4340;52.516;13.468;2023-01-19T03:29:49;-0.80;99.90
8605;DHT22;4340;52.516;13.468;2023-01-19T03:32:18;-0.80;99.90
8605;DHT22;4340;52.516;13.468;2023-01-19T03:34:47;-0.80;99.90
8605;DHT22;4340;52.516;13.468;2023-01-19T03:37:15;-0.90;99.90
8605;DHT22;4340;52.516;13.468;2023-01-19T03:39:43;-0.90;99.90
8605;DHT22;4340;52.516;13.468;2023-01-19T03:42:12;-0.90;99.90
8605;DHT22;4340;52.516;13.468;2023-01-19T03:44:41;-1.00;99.90
8605;DHT22;4340;52.516;13.468;2023-01-19T03:47:10;-1.00;99.90
8605;DHT22;4340;52.516;13.468;2023-01-19T03:49:40;-0.90;99.90
8605;DHT22;4340;52.516;13.468;2023-01-19T03:52:08;-1.00;99.90
8605;DHT22;4340;52.516;13.468;2023-01-19T03:54:35;-1.10;99.90
8605;DHT22;4340;52.516;13.468;2023-01-19T03:57:02;-1.10;99.90
8605;DHT22;4340;52.516;13.468;2023-01-19T03:59:28;-1.00;99.90
8605;DHT22;4340;52.516;13.468;2023-01-19T04:01:55;-1.00;99.90
8605;DHT22;4340;52.516;13.468;2023-01-19T04:04:23;-1.10;99.90
8605;DHT22;4340;52.516;13.468;2023-01-19T04:06:49;-1.10;99.90
8605;DHT22;4340;52.516;13.468;2023-01-19T04:09:16;-1.10;99.90
8605;DHT22;4340;52.516;13.468;2023-01-19T04:11:43;-1.10;99.90
8605;DHT22;4340;52.516;13.468;2023-01-19T04:14:09;-1.10;99.90
8605;DHT22;4340;52.516;13.468;2023-01-19T04:16:36;-1.20;99.90
8605;DHT22;4340;52.516;13.468;2023-01-19T04:19:02;-1.20;99.90
8605;DHT22;4340;52.516;13.468;2023-01-19T04:21:30;-1.20;99.90
8605;DHT22;4340;52.516;13.468;2023-01-19T04:23:57;-1.20;99.90
8605;DHT22;4340;52.516;13.468;2023-01-19T04:26:24;-1.20;99.90
8605;DHT22;4340;52.516;13.468;2023-01-19T04:28:50;-1.30;99.90
8605;DHT22;4340;52.516;13.468;2023-01-19T04:31:17;-1.20;99.90
8605;DHT22;4340;52.516;13.468;2023-01-19T04:33:44;-1.30;99.90
8605;DHT22;4340;52.516;13.468;2023-01-19T04:36:10;-1.20;99.90
8605;DHT22;4340;52.516;13.468;2023-01-19T04:38:38;-1.30;99.90
8605;DHT22;4340;52.516;13.468;2023-01-19T04:41:05;-1.30;99.90
8605;DHT22;4340;52.516;13.468;2023-01-19T04:43:31;-1.40;99.90
8605;DHT22;4340;52.516;13.468;2023-01-19T04:45:58;-1.40;99.90
8605;DHT22;4340;52.516;13.468;2023-01-19T04:48:25;-1.30;99.90
8605;DHT22;4340;52.516;13.468;2023-01-19T04:50:51;-1.40;99.90
8605;DHT22;4340;52.516;13.468;2023-01-19T04:53:18;-1.40;99.90
8605;DHT22;4340;52.516;13.468;2023-01-19T04:55:46;-1.50;99.90
8605;DHT22;4340;52.516;13.468;2023-01-19T04:58:12;-1.70;99.90
8605;DHT22;4340;52.516;13.468;2023-01-19T05:00:40;-1.90;99.90
8605;DHT22;4340;52.516;13.468;2023-01-19T05:03:07;-1.80;99.90
8605;DHT22;4340;52.516;13.468;2023-01-19T05:05:33;-1.90;99.90
8605;DHT22;4340;52.516;13.468;2023-01-19T05:08:00;-1.90;99.90
8605;DHT22;4340;52.516;13.468;2023-01-19T05:10:27;-1.70;1.00
8605;DHT22;4340;52.516;13.468;2023-01-19T05:12:55;-1.80;99.90
8605;DHT22;4340;52.516;13.468;2023-01-19T05:15:21;-1.80;99.90
8605;DHT22;4340;52.516;13.468;2023-01-19T05:17:49;-1.90;99.90
8605;DHT22;4340;52.516;13.468;2023-01-19T05:20:16;-2.00;99.90
8605;DHT22;4340;52.516;13.468;2023-01-19T05:22:47;-1.90;99.90
8605;DHT22;4340;52.516;13.468;2023-01-19T05:25:14;-1.90;99.90
8605;DHT22;4340;52.516;13.468;2023-01-19T05:27:40;-1.80;99.90
8605;DHT22;4340;52.516;13.468;2023-01-19T05:30:10;-1.90;99.90
8605;DHT22;4340;52.516;13.468;2023-01-19T05:32:37;-2.10;99.90
8605;DHT22;4340;52.516;13.468;2023-01-19T05:35:04;-2.20;99.90
8605;DHT22;4340;52.516;13.468;2023-01-19T05:37:31;-2.20;1.00
8605;DHT22;4340;52.516;13.468;2023-01-19T05:39:58;-2.00;1.00
8605;DHT22;4340;52.516;13.468;2023-01-19T05:42:24;-2.00;99.90
8605;DHT22;4340;52.516;13.468;2023-01-19T05:44:51;-2.00;99.90
8605;DHT22;4340;52.516;13.468;2023-01-19T05:47:18;-2.30;99.90
8605;DHT22;4340;52.516;13.468;2023-01-19T05:49:45;-2.30;1.00
8605;DHT22;4340;52.516;13.468;2023-01-19T05:52:12;-2.20;1.00
8605;DHT22;4340;52.516;13.468;2023-01-19T05:54:39;-2.20;1.00
8605;DHT22;4340;52.516;13.468;2023-01-19T05:57:06;-2.00;1.00
8605;DHT22;4340;52.516;13.468;2023-01-19T05:59:32;-2.10;99.90
8605;DHT22;4340;52.516;13.468;2023-01-19T06:01:59;-2.00;99.90
8605;DHT22;4340;52.516;13.468;2023-01-19T06:04:27;-2.10;99.90
8605;DHT22;4340;52.516;13.468;2023-01-19T06:06:54;-2.10;99.90
8605;DHT22;4340;52.516;13.468;2023-01-19T06:09:20;-2.20;99.90
8605;DHT22;4340;52.516;13.468;2023-01-19T06:11:47;-2.00;99.90
8605;DHT22;4340;52.516;13.468;2023-01-19T06:14:13;-1.90;99.90
8605;DHT22;4340;52.516;13.468;2023-01-19T06:16:40;-1.90;99.90
8605;DHT22;4340;52.516;13.468;2023-01-19T06:19:06;-1.90;99.90
8605;DHT22;4340;52.516;13.468;2023-01-19T06:21:34;-1.90;99.90
8605;DHT22;4340;52.516;13.468;2023-01-19T06:24:01;-1.90;99.90
8605;DHT22;4340;52.516;13.468;2023-01-19T06:26:28;-2.10;99.90
8605;DHT22;4340;52.516;13.468;2023-01-19T06:28:54;-2.00;99.90
8605;DHT22;4340;52.516;13.468;2023-01-19T06:31:21;-2.00;99.90
8605;DHT22;4340;52.516;13.468;2023-01-19T06:33:48;-2.10;99.90
8605;DHT22;4340;52.516;13.468;2023-01-19T06:36:15;-2.10;99.90
8605;DHT22;4340;52.516;13.468;2023-01-19T06:38:43;-2.00;99.90
8605;DHT22;4340;52.516;13.468;2023-01-19T06:41:09;-1.90;99.90
8605;DHT22;4340;52.516;13.468;2023-01-19T06:43:36;-1.90;99.90
8605;DHT22;4340;52.516;13.468;2023-01-19T06:46:02;-1.90;99.90
8605;DHT22;4340;52.516;13.468;2023-01-19T06:48:29;-1.90;99.90
8605;DHT22;4340;52.516;13.468;2023-01-19T06:50:55;-1.80;99.90
8605;DHT22;4340;52.516;13.468;2023-01-19T06:53:22;-1.80;99.90
8605;DHT22;4340;52.516;13.468;2023-01-19T06:55:50;-1.80;99.90
8605;DHT22;4340;52.516;13.468;2023-01-19T06:58:16;-1.90;99.90
8605;DHT22;4340;52.516;13.468;2023-01-19T07:00:43;-1.90;99.90
8605;DHT22;4340;52.516;13.468;2023-01-19T07:03:17;-1.90;98.80
8605;DHT22;4340;52.516;13.468;2023-01-19T07:05:44;-1.90;99.90
8605;DHT22;4340;52.516;13.468;2023-01-19T07:08:11;-1.90;99.90
8605;DHT22;4340;52.516;13.468;2023-01-19T07:10:38;-1.90;99.90
8605;DHT22;4340;52.516;13.468;2023-01-19T07:13:05;-2.00;99.90
8605;DHT22;4340;52.516;13.468;2023-01-19T07:15:32;-1.90;99.90
8605;DHT22;4340;52.516;13.468;2023-01-19T07:17:58;-1.90;99.90
8605;DHT22;4340;52.516;13.468;2023-01-19T07:20:28;-1.80;99.90
8605;DHT22;4340;52.516;13.468;2023-01-19T07:22:55;-2.00;84.80
8605;DHT22;4340;52.516;13.468;2023-01-19T07:25:22;-2.20;99.90
8605;DHT22;4340;52.516;13.468;2023-01-19T07:27:48;-2.10;99.90
8605;DHT22;4340;52.516;13.468;2023-01-19T07:30:17;-2.00;99.90
8605;DHT22;4340;52.516;13.468;2023-01-19T07:32:43;-2.00;99.90
8605;DHT22;4340;52.516;13.468;2023-01-19T07:35:10;-1.90;99.90
8605;DHT22;4340;52.516;13.468;2023-01-19T07:37:36;-1.90;99.90
8605;DHT22;4340;52.516;13.468;2023-01-19T07:40:04;-2.00;99.90
8605;DHT22;4340;52.516;13.468;2023-01-19T07:42:30;-2.10;99.90
8605;DHT22;4340;52.516;13.468;2023-01-19T07:44:57;-2.10;99.90
8605;DHT22;4340;52.516;13.468;2023-01-19T07:47:25;-2.10;99.90
8605;DHT22;4340;52.516;13.468;2023-01-19T07:49:52;-2.00;99.90
8605;DHT22;4340;52.516;13.468;2023-01-19T07:52:18;-2.00;99.90
8605;DHT22;4340;52.516;13.468;2023-01-19T07:54:45;-1.90;99.90
8605;DHT22;4340;52.516;13.468;2023-01-19T07:57:15;-1.80;99.90
8605;DHT22;4340;52.516;13.468;2023-01-19T07:59:41;-1.80;66.60
8605;DHT22;4340;52.516;13.468;2023-01-19T08:02:09;-1.80;34.30
8605;DHT22;4340;52.516;13.468;2023-01-19T08:04:37;-1.80;14.10
8605;DHT22;4340;52.516;13.468;2023-01-19T08:07:03;-2.00;48.30
8605;DHT22;4340;52.516;13.468;2023-01-19T08:09:30;-1.90;93.80
8605;DHT22;4340;52.516;13.468;2023-01-19T08:11:57;-1.80;32.00
8605;DHT22;4340;52.516;13.468;2023-01-19T08:14:23;-1.60;13.10
8605;DHT22;4340;52.516;13.468;2023-01-19T08:16:50;-1.50;1.00
8605;DHT22;4340;52.516;13.468;2023-01-19T08:19:16;-1.50;1.00
8605;DHT22;4340;52.516;13.468;2023-01-19T08:21:44;-1.60;1.00
8605;DHT22;4340;52.516;13.468;2023-01-19T08:24:17;-1.50;1.00
8605;DHT22;4340;52.516;13.468;2023-01-19T08:26:45;-1.60;1.00
8605;DHT22;4340;52.516;13.468;2023-01-19T08:29:12;-1.40;1.00
8605;DHT22;4340;52.516;13.468;2023-01-19T08:31:38;-1.30;1.00
8605;DHT22;4340;52.516;13.468;2023-01-19T08:34:06;-1.30;1.00
8605;DHT22;4340;52.516;13.468;2023-01-19T08:36:33;-1.40;1.00
8605;DHT22;4340;52.516;13.468;2023-01-19T08:39:01;-1.40;1.00
8605;DHT22;4340;52.516;13.468;2023-01-19T08:41:27;-1.30;1.00
8605;DHT22;4340;52.516;13.468;2023-01-19T08:43:54;-1.30;1.00
8605;DHT22;4340;52.516;13.468;2023-01-19T08:46:20;-1.20;1.00
8605;DHT22;4340;52.516;13.468;2023-01-19T08:48:47;-1.20;1.00
8605;DHT22;4340;52.516;13.468;2023-01-19T08:51:14;-1.10;1.00
8605;DHT22;4340;52.516;13.468;2023-01-19T08:53:41;-1.00;1.00
8605;DHT22;4340;52.516;13.468;2023-01-19T08:56:09;-0.90;1.00
8605;DHT22;4340;52.516;13.468;2023-01-19T08:58:37;-0.90;1.00
8605;DHT22;4340;52.516;13.468;2023-01-19T09:01:05;-0.90;1.00
8605;DHT22;4340;52.516;13.468;2023-01-19T09:03:32;-0.90;1.00
8605;DHT22;4340;52.516;13.468;2023-01-19T09:05:58;-0.80;1.00
8605;DHT22;4340;52.516;13.468;2023-01-19T09:08:25;-0.80;1.00
8605;DHT22;4340;52.516;13.468;2023-01-19T09:10:51;-0.70;1.00
8605;DHT22;4340;52.516;13.468;2023-01-19T09:13:19;-0.60;1.00
8605;DHT22;4340;52.516;13.468;2023-01-19T09:15:46;-0.50;1.00
8605;DHT22;4340;52.516;13.468;2023-01-19T09:18:14;-0.50;1.00
8605;DHT22;4340;52.516;13.468;2023-01-19T09:20:42;-0.50;1.00
8605;DHT22;4340;52.516;13.468;2023-01-19T09:23:09;-0.40;1.00
8605;DHT22;4340;52.516;13.468;2023-01-19T09:25:36;-0.40;1.00
8605;DHT22;4340;52.516;13.468;2023-01-19T09:28:03;-0.40;1.00
8605;DHT22;4340;52.516;13.468;2023-01-19T09:30:31;-0.30;1.00
8605;DHT22;4340;52.516;13.468;2023-01-19T09:33:01;-0.30;1.00
8605;DHT22;4340;52.516;13.468;2023-01-19T09:35:30;-0.30;1.00
8605;DHT22;4340;52.516;13.468;2023-01-19T09:37:57;-0.30;1.00
8605;DHT22;4340;52.516;13.468;2023-01-19T09:40:24;-0.20;1.00
8605;DHT22;4340;52.516;13.468;2023-01-19T09:42:54;-0.10;1.00
8605;DHT22;4340;52.516;13.468;2023-01-19T09:45:26;-0.10;1.00
8605;DHT22;4340;52.516;13.468;2023-01-19T09:47:56;-0.10;1.00
8605;DHT22;4340;52.516;13.468;2023-01-19T09:50:25;0.00;1.00
8605;DHT22;4340;52.516;13.468;2023-01-19T09:52:57;0.10;1.00
8605;DHT22;4340;52.516;13.468;2023-01-19T09:55:26;0.30;1.00
8605;DHT22;4340;52.516;13.468;2023-01-19T09:57:53;0.20;1.00
8605;DHT22;4340;52.516;13.468;2023-01-19T10:00:20;0.30;1.00
8605;DHT22;4340;52.516;13.468;2023-01-19T10:02:54;0.40;1.00
8605;DHT22;4340;52.516;13.468;2023-01-19T10:05:27;0.30;1.00
8605;DHT22;4340;52.516;13.468;2023-01-19T10:08:12;0.50;1.00
8605;DHT22;4340;52.516;13.468;2023-01-19T10:10:46;0.40;1.00
8605;DHT22;4340;52.516;13.468;2023-01-19T10:13:23;0.50;1.00
8605;DHT22;4340;52.516;13.468;2023-01-19T10:15:58;0.60;1.00
8605;DHT22;4340;52.516;13.468;2023-01-19T10:18:29;0.70;1.00
8605;DHT22;4340;52.516;13.468;2023-01-19T10:21:03;0.70;1.00
8605;DHT22;4340;52.516;13.468;2023-01-19T10:23:38;0.80;1.00
8605;DHT22;4340;52.516;13.468;2023-01-19T10:26:09;0.70;1.00
8605;DHT22;4340;52.516;13.468;2023-01-19T10:28:37;0.90;1.00
8605;DHT22;4340;52.516;13.468;2023-01-19T10:31:05;0.80;1.00
8605;DHT22;4340;52.516;13.468;2023-01-19T10:33:33;0.90;1.00
8605;DHT22;4340;52.516;13.468;2023-01-19T10:36:04;1.00;1.00
8605;DHT22;4340;52.516;13.468;2023-01-19T10:38:33;1.00;1.00
8605;DHT22;4340;52.516;13.468;2023-01-19T10:41:03;1.10;1.00
8605;DHT22;4340;52.516;13.468;2023-01-19T10:43:36;1.10;1.00
8605;DHT22;4340;52.516;13.468;2023-01-19T10:46:13;1.20;1.00
8605;DHT22;4340;52.516;13.468;2023-01-19T10:48:42;1.30;1.00
8605;DHT22;4340;52.516;13.468;2023-01-19T10:51:10;1.40;1.00
8605;DHT22;4340;52.516;13.468;2023-01-19T10:53:37;1.40;1.00
8605;DHT22;4340;52.516;13.468;2023-01-19T10:56:14;1.40;1.00
8605;DHT22;4340;52.516;13.468;2023-01-19T10:58:41;1.40;1.00
8605;DHT22;4340;52.516;13.468;2023-01-19T11:01:18;1.40;1.00
8605;DHT22;4340;52.516;13.468;2023-01-19T11:03:45;1.50;1.00
8605;DHT22;4340;52.516;13.468;2023-01-19T11:06:22;1.70;1.00
8605;DHT22;4340;52.516;13.468;2023-01-19T11:08:50;1.90;1.00
8605;DHT22;4340;52.516;13.468;2023-01-19T11:11:18;2.00;1.00
8605;DHT22;4340;52.516;13.468;2023-01-19T11:14:01;1.90;1.00
8605;DHT22;4340;52.516;13.468;2023-01-19T11:16:30;2.00;1.00
8605;DHT22;4340;52.516;13.468;2023-01-19T11:19:00;1.90;1.00
8605;DHT22;4340;52.516;13.468;2023-01-19T11:21:30;1.90;1.00
8605;DHT22;4340;52.516;13.468;2023-01-19T11:23:59;2.10;1.00
8605;DHT22;4340;52.516;13.468;2023-01-19T11:26:29;2.00;1.00
8605;DHT22;4340;52.516;13.468;2023-01-19T11:28:57;2.00;1.00
8605;DHT22;4340;52.516;13.468;2023-01-19T11:31:31;2.10;1.00
8605;DHT22;4340;52.516;13.468;2023-01-19T11:33:59;2.10;1.00
8605;DHT22;4340;52.516;13.468;2023-01-19T11:36:30;2.20;1.00
8605;DHT22;4340;52.516;13.468;2023-01-19T11:38:59;2.10;1.00
8605;DHT22;4340;52.516;13.468;2023-01-19T11:41:27;2.20;1.00
8605;DHT22;4340;52.516;13.468;2023-01-19T11:43:56;2.40;1.00
8605;DHT22;4340;52.516;13.468;2023-01-19T11:46:27;1.60;1.00
8605;DHT22;4340;52.516;13.468;2023-01-19T11:49:00;1.90;1.00
8605;DHT22;4340;52.516;13.468;2023-01-19T11:51:34;1.70;1.00
8605;DHT22;4340;52.516;13.468;2023-01-19T11:54:06;1.80;1.00
8605;DHT22;4340;52.516;13.468;2023-01-19T11:56:37;1.90;1.00
8605;DHT22;4340;52.516;13.468;2023-01-19T11:59:09;2.10;1.00
8605;DHT22;4340;52.516;13.468;2023-01-19T12:01:41;2.30;1.00
8605;DHT22;4340;52.516;13.468;2023-01-19T12:04:13;2.30;1.00
8605;DHT22;4340;52.516;13.468;2023-01-19T12:06:43;2.40;1.00
8605;DHT22;4340;52.516;13.468;2023-01-19T12:09:16;2.20;1.00
8605;DHT22;4340;52.516;13.468;2023-01-19T12:11:47;2.30;1.00
8605;DHT22;4340;52.516;13.468;2023-01-19T12:14:18;2.30;1.00
8605;DHT22;4340;52.516;13.468;2023-01-19T12:16:47;2.20;1.00
8605;DHT22;4340;52.516;13.468;2023-01-19T12:19:17;2.30;1.00
8605;DHT22;4340;52.516;13.468;2023-01-19T12:21:47;2.30;1.00
8605;DHT22;4340;52.516;13.468;2023-01-19T12:24:17;2.30;1.00
8605;DHT22;4340;52.516;13.468;2023-01-19T12:26:50;2.40;1.00
8605;DHT22;4340;52.516;13.468;2023-01-19T12:29:20;2.40;1.00
8605;DHT22;4340;52.516;13.468;2023-01-19T12:32:17;2.40;1.00
8605;DHT22;4340;52.516;13.468;2023-01-19T12:34:46;2.40;1.00
8605;DHT22;4340;52.516;13.468;2023-01-19T12:37:35;2.50;1.00
8605;DHT22;4340;52.516;13.468;2023-01-19T12:40:15;2.30;1.00
8605;DHT22;4340;52.516;13.468;2023-01-19T12:42:45;2.40;1.00
8605;DHT22;4340;52.516;13.468;2023-01-19T12:45:14;2.20;1.00
8605;DHT22;4340;52.516;13.468;2023-01-19T12:47:49;2.30;1.00
8605;DHT22;4340;52.516;13.468;2023-01-19T12:50:17;2.30;1.00
8605;DHT22;4340;52.516;13.468;2023-01-19T12:52:49;2.40;1.00
8605;DHT22;4340;52.516;13.468;2023-01-19T12:55:23;2.00;1.00
8605;DHT22;4340;52.516;13.468;2023-01-19T12:58:01;2.10;1.00
8605;DHT22;4340;52.516;13.468;2023-01-19T13:00:35;2.20;1.00
8605;DHT22;4340;52.516;13.468;2023-01-19T13:03:04;2.10;1.00
8605;DHT22;4340;52.516;13.468;2023-01-19T13:05:51;2.30;1.00
8605;DHT22;4340;52.516;13.468;2023-01-19T13:08:56;2.00;1.00
8605;DHT22;4340;52.516;13.468;2023-01-19T13:11:23;2.10;1.00
8605;DHT22;4340;52.516;13.468;2023-01-19T13:17:02;2.30;1.00
8605;DHT22;4340;52.516;13.468;2023-01-19T13:19:50;2.00;1.00
8605;DHT22;4340;52.516;13.468;2023-01-19T13:22:49;2.00;1.00
8605;DHT22;4340;52.516;13.468;2023-01-19T13:25:27;2.20;1.00
8605;DHT22;4340;52.516;13.468;2023-01-19T13:27:55;2.00;1.00
8605;DHT22;4340;52.516;13.468;2023-01-19T13:30:25;2.10;1.00
8605;DHT22;4340;52.516;13.468;2023-01-19T13:32:53;2.10;1.00
8605;DHT22;4340;52.516;13.468;2023-01-19T13:35:21;2.10;1.00
8605;DHT22;4340;52.516;13.468;2023-01-19T13:37:49;2.20;1.00
8605;DHT22;4340;52.516;13.468;2023-01-19T13:40:20;2.20;1.00
8605;DHT22;4340;52.516;13.468;2023-01-19T13:42:50;2.30;1.00
8605;DHT22;4340;52.516;13.468;2023-01-19T13:45:26;2.20;1.00
8605;DHT22;4340;52.516;13.468;2023-01-19T13:47:57;2.20;1.00
8605;DHT22;4340;52.516;13.468;2023-01-19T13:50:27;2.10;1.00
8605;DHT22;4340;52.516;13.468;2023-01-19T13:52:54;1.90;1.00
8605;DHT22;4340;52.516;13.468;2023-01-19T13:55:24;1.90;1.00
8605;DHT22;4340;52.516;13.468;2023-01-19T13:57:53;2.00;1.00
8605;DHT22;4340;52.516;13.468;2023-01-19T14:00:22;2.00;1.00
8605;DHT22;4340;52.516;13.468;2023-01-19T14:02:59;2.00;1.00
8605;DHT22;4340;52.516;13.468;2023-01-19T14:05:28;2.00;1.00
8605;DHT22;4340;52.516;13.468;2023-01-19T14:08:04;2.00;1.00
8605;DHT22;4340;52.516;13.468;2023-01-19T14:10:32;2.00;1.00
8605;DHT22;4340;52.516;13.468;2023-01-19T14:13:03;1.90;1.00
8605;DHT22;4340;52.516;13.468;2023-01-19T14:15:32;1.90;1.00
8605;DHT22;4340;52.516;13.468;2023-01-19T14:18:22;2.00;1.00
8605;DHT22;4340;52.516;13.468;2023-01-19T14:20:55;1.80;1.00
8605;DHT22;4340;52.516;13.468;2023-01-19T14:23:43;1.80;1.00
8605;DHT22;4340;52.516;13.468;2023-01-19T14:26:46;1.80;1.00
8605;DHT22;4340;52.516;13.468;2023-01-19T14:29:25;1.80;1.00
8605;DHT22;4340;52.516;13.468;2023-01-19T14:32:05;1.70;1.00
8605;DHT22;4340;52.516;13.468;2023-01-19T14:34:34;1.70;1.00
8605;DHT22;4340;52.516;13.468;2023-01-19T14:37:03;1.70;1.00
8605;DHT22;4340;52.516;13.468;2023-01-19T14:39:34;1.70;1.00
8605;DHT22;4340;52.516;13.468;2023-01-19T14:42:03;1.70;1.00
8605;DHT22;4340;52.516;13.468;2023-01-19T14:44:35;1.50;1.00
8605;DHT22;4340;52.516;13.468;2023-01-19T14:47:03;1.60;1.00
8605;DHT22;4340;52.516;13.468;2023-01-19T14:49:34;1.60;1.00
8605;DHT22;4340;52.516;13.468;2023-01-19T14:52:03;1.60;1.00
8605;DHT22;4340;52.516;13.468;2023-01-19T14:54:34;1.50;1.00
8605;DHT22;4340;52.516;13.468;2023-01-19T14:57:03;1.50;1.00
8605;DHT22;4340;52.516;13.468;2023-01-19T14:59:29;1.50;1.00
8605;DHT22;4340;52.516;13.468;2023-01-19T15:01:58;1.40;1.00
8605;DHT22;4340;52.516;13.468;2023-01-19T15:04:25;1.50;1.00
8605;DHT22;4340;52.516;13.468;2023-01-19T15:06:53;1.60;1.00
8605;DHT22;4340;52.516;13.468;2023-01-19T15:09:20;1.60;1.00
8605;DHT22;4340;52.516;13.468;2023-01-19T15:11:48;1.50;1.00
8605;DHT22;4340;52.516;13.468;2023-01-19T15:14:16;1.50;1.00
8605;DHT22;4340;52.516;13.468;2023-01-19T15:16:44;1.40;1.00
8605;DHT22;4340;52.516;13.468;2023-01-19T15:19:13;1.40;1.00
8605;DHT22;4340;52.516;13.468;2023-01-19T15:21:41;1.40;1.00
8605;DHT22;4340;52.516;13.468;2023-01-19T15:24:10;1.40;1.00
8605;DHT22;4340;52.516;13.468;2023-01-19T15:26:38;1.40;1.00
8605;DHT22;4340;52.516;13.468;2023-01-19T15:29:15;1.40;1.00
8605;DHT22;4340;52.516;13.468;2023-01-19T15:31:43;1.40;1.00
8605;DHT22;4340;52.516;13.468;2023-01-19T15:34:11;1.40;1.00
8605;DHT22;4340;52.516;13.468;2023-01-19T15:36:39;1.40;1.00
8605;DHT22;4340;52.516;13.468;2023-01-19T15:39:06;1.40;1.00
8605;DHT22;4340;52.516;13.468;2023-01-19T15:41:33;1.40;1.00
8605;DHT22;4340;52.516;13.468;2023-01-19T15:43:59;1.30;1.00
8605;DHT22;4340;52.516;13.468;2023-01-19T15:46:26;1.30;1.00
8605;DHT22;4340;52.516;13.468;2023-01-19T15:48:53;1.30;1.00
8605;DHT22;4340;52.516;13.468;2023-01-19T15:51:22;1.30;1.00
8605;DHT22;4340;52.516;13.468;2023-01-19T15:53:51;1.30;1.00
8605;DHT22;4340;52.516;13.468;2023-01-19T15:56:20;1.30;1.00
8605;DHT22;4340;52.516;13.468;2023-01-19T15:58:48;1.30;1.00
8605;DHT22;4340;52.516;13.468;2023-01-19T16:01:15;1.30;1.00
8605;DHT22;4340;52.516;13.468;2023-01-19T16:03:43;1.30;1.00
8605;DHT22;4340;52.516;13.468;2023-01-19T16:06:10;1.30;1.00
8605;DHT22;4340;52.516;13.468;2023-01-19T16:08:38;1.30;1.00
8605;DHT22;4340;52.516;13.468;2023-01-19T16:11:06;1.30;1.00
8605;DHT22;4340;52.516;13.468;2023-01-19T16:13:33;1.40;1.00
8605;DHT22;4340;52.516;13.468;2023-01-19T16:16:04;1.30;1.00
8605;DHT22;4340;52.516;13.468;2023-01-19T16:18:31;1.30;1.00
8605;DHT22;4340;52.516;13.468;2023-01-19T16:20:57;1.30;1.00
8605;DHT22;4340;52.516;13.468;2023-01-19T16:23:24;1.30;1.00
8605;DHT22;4340;52.516;13.468;2023-01-19T16:25:56;1.40;1.00